Terminal Aerodrome Forecast
Issued by NWS

Home | Current Version | Previous Version | Text Only | Print | Product List | Glossary On
Versions: 1 2 3 4 5 6 7 8 9 10 11 12 13 14 15 16 17
000
FTAK31 PAJN 282300
TAFAYA
TAF
PAYA 282330Z 2900/2924 VRB04KT P6SM VCSH SCT040 BKN080
     FM290300 VRB04KT P6SM VCSH SCT050 BKN090
     FM290900 VRB03KT P6SM -RA BKN030 OVC050
     FM291500 09005KT P6SM -RA FEW010 SCT020 OVC050
      AMD LTD TO CLD VIS AND WIND 2901/2910=

USA.gov is the U.S. government's official web portal to all federal, state and local government web resources and services.